<?xml version="1.0" encoding="UTF-8" standalone="no" ?>
<gpx xmlns="http://www.topografix.com/GPX/1/1" xmlns:xsi="http://www.w3.org/2001/XMLSchema-instance" xsi:schemaLocation="http://www.topografix.com/GPX/1/1 http://www.topografix.com/GPX/1/1/gpx.xsd" version="1.1" creator="VisuGPX - https://www.visugpx.com">
  <metadata>
    <name>3 Batailles Boucle N°5</name>
  </metadata>
  <trk>
    <name><![CDATA[3 Bataille Boucle N°5]]></name>
    <extensions>
      <line xmlns="http://www.topografix.com/GPX/gpx_style/0/2">
        <color>FF0000</color>
        <width>4</width>
      </line>
    </extensions>
    <trkseg>
      <trkpt lat="46.67878" lon="0.56282">
        <ele>59</ele>
        <time>2022-07-11T07:19:42Z</time>
      </trkpt>
      <trkpt lat="46.67726" lon="0.56435">
        <ele>59</ele>
        <time>2022-07-11T07:22:10Z</time>
      </trkpt>
      <trkpt lat="46.67525" lon="0.56653">
        <ele>58</ele>
        <time>2022-07-11T07:25:31Z</time>
      </trkpt>
      <trkpt lat="46.66899" lon="0.57077">
        <ele>60</ele>
        <time>2022-07-11T07:34:43Z</time>
      </trkpt>
      <trkpt lat="46.66869" lon="0.57068">
        <ele>59</ele>
        <time>2022-07-11T07:35:08Z</time>
      </trkpt>
      <trkpt lat="46.66737" lon="0.57118">
        <ele>59</ele>
        <time>2022-07-11T07:36:57Z</time>
      </trkpt>
      <trkpt lat="46.66619" lon="0.57108">
        <ele>59</ele>
        <time>2022-07-11T07:38:32Z</time>
      </trkpt>
      <trkpt lat="46.66388" lon="0.57165">
        <ele>70</ele>
        <time>2022-07-11T07:41:39Z</time>
      </trkpt>
      <trkpt lat="46.66272" lon="0.57306">
        <ele>69</ele>
        <time>2022-07-11T07:43:40Z</time>
      </trkpt>
      <trkpt lat="46.66044" lon="0.57483">
        <ele>71</ele>
        <time>2022-07-11T07:47:07Z</time>
      </trkpt>
      <trkpt lat="46.65707" lon="0.57739">
        <ele>64</ele>
        <time>2022-07-11T07:52:11Z</time>
      </trkpt>
      <trkpt lat="46.65539" lon="0.57801">
        <ele>67</ele>
        <time>2022-07-11T07:54:30Z</time>
      </trkpt>
      <trkpt lat="46.65591" lon="0.57653">
        <ele>78</ele>
        <time>2022-07-11T07:56:01Z</time>
      </trkpt>
      <trkpt lat="46.65427" lon="0.57567">
        <ele>87</ele>
        <time>2022-07-11T07:58:21Z</time>
      </trkpt>
      <trkpt lat="46.65165" lon="0.57779">
        <ele>96</ele>
        <time>2022-07-11T08:02:21Z</time>
      </trkpt>
      <trkpt lat="46.65105" lon="0.57783">
        <ele>94</ele>
        <time>2022-07-11T08:03:09Z</time>
      </trkpt>
      <trkpt lat="46.65021" lon="0.56992">
        <ele>101</ele>
        <time>2022-07-11T08:10:29Z</time>
      </trkpt>
      <trkpt lat="46.64825" lon="0.56837">
        <ele>107</ele>
        <time>2022-07-11T08:13:28Z</time>
      </trkpt>
      <trkpt lat="46.64523" lon="0.56725">
        <ele>110</ele>
        <time>2022-07-11T08:17:37Z</time>
      </trkpt>
      <trkpt lat="46.6461" lon="0.56397">
        <ele>109</ele>
        <time>2022-07-11T08:20:50Z</time>
      </trkpt>
      <trkpt lat="46.64607" lon="0.56151">
        <ele>102</ele>
        <time>2022-07-11T08:23:06Z</time>
      </trkpt>
      <trkpt lat="46.64555" lon="0.55982">
        <ele>104</ele>
        <time>2022-07-11T08:24:47Z</time>
      </trkpt>
      <trkpt lat="46.64672" lon="0.55661">
        <ele>115</ele>
        <time>2022-07-11T08:28:07Z</time>
      </trkpt>
      <trkpt lat="46.64548" lon="0.5557">
        <ele>107</ele>
        <time>2022-07-11T08:29:58Z</time>
      </trkpt>
      <trkpt lat="46.6456" lon="0.55404">
        <ele>105</ele>
        <time>2022-07-11T08:31:30Z</time>
      </trkpt>
      <trkpt lat="46.64503" lon="0.55112">
        <ele>105</ele>
        <time>2022-07-11T08:34:17Z</time>
      </trkpt>
      <trkpt lat="46.64317" lon="0.54762">
        <ele>107</ele>
        <time>2022-07-11T08:38:20Z</time>
      </trkpt>
      <trkpt lat="46.64461" lon="0.5417">
        <ele>114</ele>
        <time>2022-07-11T08:44:05Z</time>
      </trkpt>
      <trkpt lat="46.64595" lon="0.54195">
        <ele>117</ele>
        <time>2022-07-11T08:45:54Z</time>
      </trkpt>
      <trkpt lat="46.64607" lon="0.53979">
        <ele>120</ele>
        <time>2022-07-11T08:47:53Z</time>
      </trkpt>
      <trkpt lat="46.64558" lon="0.53914">
        <ele>120</ele>
        <time>2022-07-11T08:48:46Z</time>
      </trkpt>
      <trkpt lat="46.64516" lon="0.53658">
        <ele>123</ele>
        <time>2022-07-11T08:51:10Z</time>
      </trkpt>
      <trkpt lat="46.64528" lon="0.53485">
        <ele>125</ele>
        <time>2022-07-11T08:52:46Z</time>
      </trkpt>
      <trkpt lat="46.6457" lon="0.53181">
        <ele>125.7</ele>
      </trkpt>
      <trkpt lat="46.64563" lon="0.53207">
        <ele>133</ele>
        <time>2022-07-11T08:55:21Z</time>
      </trkpt>
      <trkpt lat="46.64513" lon="0.52932">
        <ele>131</ele>
        <time>2022-07-11T08:57:58Z</time>
      </trkpt>
      <trkpt lat="46.64575" lon="0.52665">
        <ele>136</ele>
        <time>2022-07-11T09:00:33Z</time>
      </trkpt>
      <trkpt lat="46.64573" lon="0.52405">
        <ele>138</ele>
        <time>2022-07-11T09:02:56Z</time>
      </trkpt>
      <trkpt lat="46.64669" lon="0.52019">
        <ele>136</ele>
        <time>2022-07-11T09:06:41Z</time>
      </trkpt>
      <trkpt lat="46.64793" lon="0.51615">
        <ele>131</ele>
        <time>2022-07-11T09:10:45Z</time>
      </trkpt>
      <trkpt lat="46.6483" lon="0.51442">
        <ele>135</ele>
        <time>2022-07-11T09:12:24Z</time>
      </trkpt>
      <trkpt lat="46.64932" lon="0.51135">
        <ele>127</ele>
        <time>2022-07-11T09:15:32Z</time>
      </trkpt>
      <trkpt lat="46.64934" lon="0.50825">
        <ele>127</ele>
        <time>2022-07-11T09:18:22Z</time>
      </trkpt>
      <trkpt lat="46.64986" lon="0.50432">
        <ele>125</ele>
        <time>2022-07-11T09:22:02Z</time>
      </trkpt>
      <trkpt lat="46.65001" lon="0.50266">
        <ele>123</ele>
        <time>2022-07-11T09:23:34Z</time>
      </trkpt>
      <trkpt lat="46.65058" lon="0.50081">
        <ele>120</ele>
        <time>2022-07-11T09:25:25Z</time>
      </trkpt>
      <trkpt lat="46.65043" lon="0.49955">
        <ele>123</ele>
        <time>2022-07-11T09:26:36Z</time>
      </trkpt>
      <trkpt lat="46.65098" lon="0.49739">
        <ele>130</ele>
        <time>2022-07-11T09:28:42Z</time>
      </trkpt>
      <trkpt lat="46.652" lon="0.49559">
        <ele>131</ele>
      </trkpt>
      <trkpt lat="46.65589" lon="0.50318">
        <ele>106.2</ele>
      </trkpt>
      <trkpt lat="46.66444" lon="0.52055">
        <ele>103</ele>
        <time>2022-07-11T10:41:41Z</time>
      </trkpt>
      <trkpt lat="46.6638" lon="0.52578">
        <ele>109</ele>
        <time>2022-07-11T10:46:32Z</time>
      </trkpt>
      <trkpt lat="46.66675" lon="0.53129">
        <ele>132</ele>
        <time>2022-07-11T10:52:56Z</time>
      </trkpt>
      <trkpt lat="46.669" lon="0.52804">
        <ele>130</ele>
        <time>2022-07-11T10:57:10Z</time>
      </trkpt>
      <trkpt lat="46.66989" lon="0.5292">
        <ele>132</ele>
        <time>2022-07-11T10:58:46Z</time>
      </trkpt>
      <trkpt lat="46.67128" lon="0.5297">
        <ele>132</ele>
        <time>2022-07-11T11:00:40Z</time>
      </trkpt>
      <trkpt lat="46.67208" lon="0.53234">
        <ele>129</ele>
        <time>2022-07-11T11:03:19Z</time>
      </trkpt>
      <trkpt lat="46.67281" lon="0.5371">
        <ele>129</ele>
        <time>2022-07-11T11:07:47Z</time>
      </trkpt>
      <trkpt lat="46.67315" lon="0.54061">
        <ele>127</ele>
        <time>2022-07-11T11:11:02Z</time>
      </trkpt>
      <trkpt lat="46.67304" lon="0.54231">
        <ele>126</ele>
        <time>2022-07-11T11:12:35Z</time>
      </trkpt>
      <trkpt lat="46.67351" lon="0.54346">
        <ele>126</ele>
        <time>2022-07-11T11:13:49Z</time>
      </trkpt>
      <trkpt lat="46.67655" lon="0.54342">
        <ele>123.7</ele>
      </trkpt>
      <trkpt lat="46.67831" lon="0.54408">
        <ele>124.2</ele>
        <time>2022-07-11T11:16:14Z</time>
      </trkpt>
      <trkpt lat="46.67834" lon="0.54691">
        <ele>111.2</ele>
        <time>2022-07-11T11:20:06Z</time>
      </trkpt>
      <trkpt lat="46.67823" lon="0.54923">
        <ele>97.5</ele>
        <time>2022-07-11T11:21:42Z</time>
      </trkpt>
      <trkpt lat="46.67808" lon="0.55063">
        <ele>90.9</ele>
        <time>2022-07-11T11:24:42Z</time>
      </trkpt>
      <trkpt lat="46.67826" lon="0.55273">
        <ele>93</ele>
        <time>2022-07-11T11:26:29Z</time>
      </trkpt>
      <trkpt lat="46.6787" lon="0.5564">
        <ele>85</ele>
        <time>2022-07-11T11:29:53Z</time>
      </trkpt>
      <trkpt lat="46.67768" lon="0.55778">
        <ele>80</ele>
        <time>2022-07-11T11:31:45Z</time>
      </trkpt>
      <trkpt lat="46.67817" lon="0.55986">
        <ele>67</ele>
        <time>2022-07-11T11:33:45Z</time>
      </trkpt>
      <trkpt lat="46.67818" lon="0.56097">
        <ele>62</ele>
        <time>2022-07-11T11:34:46Z</time>
      </trkpt>
      <trkpt lat="46.67884" lon="0.56281">
        <ele>59</ele>
        <time>2022-07-11T11:36:40Z</time>
      </trkpt>
    </trkseg>
  </trk>
</gpx>